sensor_id;sensor_type;location;lat;lon;timestamp;pressure;altitude;pressure_sealevel;temperature;humidity
19672;BME280;9983;51.114;13.788;2023-02-03T00:01:01;100063.47;;;4.82;100.00
19672;BME280;9983;51.114;13.788;2023-02-03T00:06:02;100068.03;;;4.91;100.00
19672;BME280;9983;51.114;13.788;2023-02-03T00:11:03;100063.56;;;4.91;100.00
19672;BME280;9983;51.114;13.788;2023-02-03T00:16:04;100054.25;;;4.86;100.00
19672;BME280;9983;51.114;13.788;2023-02-03T00:21:06;100047.41;;;4.72;100.00
19672;BME280;9983;51.114;13.788;2023-02-03T00:26:11;100048.69;;;5.00;100.00
19672;BME280;9983;51.114;13.788;2023-02-03T00:36:16;100040.44;;;5.03;100.00
19672;BME280;9983;51.114;13.788;2023-02-03T00:41:16;100030.84;;;4.91;100.00
19672;BME280;9983;51.114;13.788;2023-02-03T00:46:17;100016.72;;;5.22;100.00
19672;BME280;9983;51.114;13.788;2023-02-03T00:51:17;100007.47;;;4.74;100.00
19672;BME280;9983;51.114;13.788;2023-02-03T00:56:17;100008.50;;;4.39;100.00
19672;BME280;9983;51.114;13.788;2023-02-03T01:01:17;99992.28;;;4.65;100.00
19672;BME280;9983;51.114;13.788;2023-02-03T01:06:19;99971.22;;;4.84;100.00
19672;BME280;9983;51.114;13.788;2023-02-03T01:11:24;99966.00;;;5.14;100.00
19672;BME280;9983;51.114;13.788;2023-02-03T01:16:27;99954.25;;;4.96;100.00
19672;BME280;9983;51.114;13.788;2023-02-03T01:21:27;99937.28;;;5.08;100.00
19672;BME280;9983;51.114;13.788;2023-02-03T01:26:28;99929.19;;;5.30;100.00
19672;BME280;9983;51.114;13.788;2023-02-03T01:31:31;99912.88;;;5.45;100.00
19672;BME280;9983;51.114;13.788;2023-02-03T01:36:34;99910.25;;;5.24;100.00
19672;BME280;9983;51.114;13.788;2023-02-03T01:41:37;99876.47;;;4.94;100.00
19672;BME280;9983;51.114;13.788;2023-02-03T01:46:41;99892.28;;;4.75;100.00
19672;BME280;9983;51.114;13.788;2023-02-03T01:51:43;99891.53;;;4.84;100.00
19672;BME280;9983;51.114;13.788;2023-02-03T01:56:47;99877.25;;;5.26;100.00
19672;BME280;9983;51.114;13.788;2023-02-03T02:01:51;99873.91;;;4.83;100.00
19672;BME280;9983;51.114;13.788;2023-02-03T02:06:55;99873.91;;;4.83;100.00
19672;BME280;9983;51.114;13.788;2023-02-03T02:11:55;99847.13;;;4.95;100.00
19672;BME280;9983;51.114;13.788;2023-02-03T02:18:01;99821.13;;;4.99;100.00
19672;BME280;9983;51.114;13.788;2023-02-03T02:28:28;99812.03;;;5.22;100.00
19672;BME280;9983;51.114;13.788;2023-02-03T02:33:44;99793.78;;;5.08;100.00
19672;BME280;9983;51.114;13.788;2023-02-03T02:39:18;99794.09;;;5.15;100.00
19672;BME280;9983;51.114;13.788;2023-02-03T02:44:24;99779.38;;;4.07;100.00
19672;BME280;9983;51.114;13.788;2023-02-03T02:49:29;99749.09;;;4.72;100.00
19672;BME280;9983;51.114;13.788;2023-02-03T02:54:33;99738.34;;;4.52;100.00
19672;BME280;9983;51.114;13.788;2023-02-03T02:59:36;99720.25;;;4.88;100.00
19672;BME280;9983;51.114;13.788;2023-02-03T03:04:36;99704.81;;;5.12;100.00
19672;BME280;9983;51.114;13.788;2023-02-03T03:09:40;99711.28;;;5.10;100.00
19672;BME280;9983;51.114;13.788;2023-02-03T03:14:44;99688.53;;;4.96;100.00
19672;BME280;9983;51.114;13.788;2023-02-03T03:19:52;99682.34;;;5.16;100.00
19672;BME280;9983;51.114;13.788;2023-02-03T03:24:59;99674.69;;;5.32;100.00
19672;BME280;9983;51.114;13.788;2023-02-03T03:30:14;99687.56;;;5.47;100.00
19672;BME280;9983;51.114;13.788;2023-02-03T03:35:15;99675.28;;;5.65;100.00
19672;BME280;9983;51.114;13.788;2023-02-03T03:40:21;99674.31;;;5.66;100.00
19672;BME280;9983;51.114;13.788;2023-02-03T03:45:36;99679.38;;;5.88;100.00
19672;BME280;9983;51.114;13.788;2023-02-03T03:50:48;99672.50;;;5.76;100.00
19672;BME280;9983;51.114;13.788;2023-02-03T03:55:51;99660.56;;;5.61;100.00
19672;BME280;9983;51.114;13.788;2023-02-03T04:00:55;99652.06;;;5.77;100.00
19672;BME280;9983;51.114;13.788;2023-02-03T04:05:56;99618.19;;;5.69;100.00
19672;BME280;9983;51.114;13.788;2023-02-03T04:10:57;99608.25;;;5.52;100.00
19672;BME280;9983;51.114;13.788;2023-02-03T04:15:57;99598.16;;;5.26;100.00
19672;BME280;9983;51.114;13.788;2023-02-03T04:20:57;99592.38;;;5.21;100.00
19672;BME280;9983;51.114;13.788;2023-02-03T04:25:59;99581.38;;;5.36;100.00
19672;BME280;9983;51.114;13.788;2023-02-03T04:31:00;99573.69;;;5.52;100.00
19672;BME280;9983;51.114;13.788;2023-02-03T04:36:00;99579.81;;;5.81;100.00
19672;BME280;9983;51.114;13.788;2023-02-03T04:41:00;99588.91;;;5.88;100.00
19672;BME280;9983;51.114;13.788;2023-02-03T04:46:01;99557.41;;;5.93;100.00
19672;BME280;9983;51.114;13.788;2023-02-03T04:51:02;99564.97;;;5.98;100.00
19672;BME280;9983;51.114;13.788;2023-02-03T04:56:03;99570.78;;;6.21;100.00
19672;BME280;9983;51.114;13.788;2023-02-03T05:01:07;99577.78;;;6.22;100.00
19672;BME280;9983;51.114;13.788;2023-02-03T05:06:08;99567.88;;;6.04;100.00
19672;BME280;9983;51.114;13.788;2023-02-03T05:11:08;99553.13;;;6.20;100.00
19672;BME280;9983;51.114;13.788;2023-02-03T05:16:08;99561.56;;;6.05;100.00
19672;BME280;9983;51.114;13.788;2023-02-03T05:21:08;99552.56;;;6.26;100.00
19672;BME280;9983;51.114;13.788;2023-02-03T05:26:09;99534.25;;;6.50;100.00
19672;BME280;9983;51.114;13.788;2023-02-03T05:31:09;99519.22;;;6.22;100.00
19672;BME280;9983;51.114;13.788;2023-02-03T05:36:10;99501.88;;;6.45;100.00
19672;BME280;9983;51.114;13.788;2023-02-03T05:41:11;99523.38;;;6.34;100.00
19672;BME280;9983;51.114;13.788;2023-02-03T05:46:30;99512.56;;;6.63;100.00
19672;BME280;9983;51.114;13.788;2023-02-03T05:51:30;99506.31;;;6.54;100.00
19672;BME280;9983;51.114;13.788;2023-02-03T05:56:30;99524.19;;;6.44;100.00
19672;BME280;9983;51.114;13.788;2023-02-03T06:01:31;99511.72;;;6.62;100.00
19672;BME280;9983;51.114;13.788;2023-02-03T06:06:32;99520.72;;;6.61;100.00
19672;BME280;9983;51.114;13.788;2023-02-03T06:11:34;99533.47;;;6.30;100.00
19672;BME280;9983;51.114;13.788;2023-02-03T06:16:34;99515.94;;;6.65;100.00
19672;BME280;9983;51.114;13.788;2023-02-03T06:21:35;99491.88;;;6.57;100.00
19672;BME280;9983;51.114;13.788;2023-02-03T06:26:35;99479.19;;;6.68;100.00
19672;BME280;9983;51.114;13.788;2023-02-03T06:31:36;99484.91;;;6.46;100.00
19672;BME280;9983;51.114;13.788;2023-02-03T06:36:36;99471.84;;;6.70;100.00
19672;BME280;9983;51.114;13.788;2023-02-03T06:41:36;99462.41;;;6.58;100.00
19672;BME280;9983;51.114;13.788;2023-02-03T06:46:36;99475.84;;;6.66;100.00
19672;BME280;9983;51.114;13.788;2023-02-03T06:51:37;99432.47;;;6.92;100.00
19672;BME280;9983;51.114;13.788;2023-02-03T06:56:37;99439.31;;;6.76;100.00
19672;BME280;9983;51.114;13.788;2023-02-03T07:01:37;99433.22;;;6.66;100.00
19672;BME280;9983;51.114;13.788;2023-02-03T07:06:38;99425.00;;;6.77;100.00
19672;BME280;9983;51.114;13.788;2023-02-03T07:11:38;99416.25;;;7.03;100.00
19672;BME280;9983;51.114;13.788;2023-02-03T07:16:38;99396.63;;;7.12;100.00
19672;BME280;9983;51.114;13.788;2023-02-03T07:21:38;99401.97;;;7.12;100.00
19672;BME280;9983;51.114;13.788;2023-02-03T07:26:39;99410.16;;;6.75;100.00
19672;BME280;9983;51.114;13.788;2023-02-03T07:31:39;99391.56;;;6.83;100.00
19672;BME280;9983;51.114;13.788;2023-02-03T07:36:39;99398.31;;;7.13;100.00
19672;BME280;9983;51.114;13.788;2023-02-03T07:41:40;99399.94;;;7.32;100.00
19672;BME280;9983;51.114;13.788;2023-02-03T07:46:40;99385.72;;;7.23;100.00
19672;BME280;9983;51.114;13.788;2023-02-03T07:51:43;99372.50;;;6.96;100.00
19672;BME280;9983;51.114;13.788;2023-02-03T07:56:44;99372.84;;;6.75;100.00
19672;BME280;9983;51.114;13.788;2023-02-03T08:01:44;99384.41;;;6.66;100.00
19672;BME280;9983;51.114;13.788;2023-02-03T08:06:44;99357.06;;;6.81;100.00
19672;BME280;9983;51.114;13.788;2023-02-03T08:11:44;99368.97;;;6.69;100.00
19672;BME280;9983;51.114;13.788;2023-02-03T08:16:45;99356.09;;;6.82;100.00
19672;BME280;9983;51.114;13.788;2023-02-03T08:21:45;99355.03;;;6.93;100.00
19672;BME280;9983;51.114;13.788;2023-02-03T08:26:45;99338.16;;;6.67;100.00
19672;BME280;9983;51.114;13.788;2023-02-03T08:31:45;99361.28;;;6.66;100.00
19672;BME280;9983;51.114;13.788;2023-02-03T08:36:46;99346.34;;;6.91;100.00
19672;BME280;9983;51.114;13.788;2023-02-03T08:41:46;99333.47;;;6.86;100.00
19672;BME280;9983;51.114;13.788;2023-02-03T08:46:50;99335.63;;;6.65;100.00
19672;BME280;9983;51.114;13.788;2023-02-03T08:51:51;99314.63;;;6.62;100.00
19672;BME280;9983;51.114;13.788;2023-02-03T08:56:52;99331.50;;;6.53;100.00
19672;BME280;9983;51.114;13.788;2023-02-03T09:01:52;99332.28;;;6.63;100.00
19672;BME280;9983;51.114;13.788;2023-02-03T09:06:53;99328.91;;;6.61;100.00
19672;BME280;9983;51.114;13.788;2023-02-03T09:11:54;99312.63;;;6.64;100.00
19672;BME280;9983;51.114;13.788;2023-02-03T09:17:02;99293.13;;;6.81;100.00
19672;BME280;9983;51.114;13.788;2023-02-03T09:22:03;99300.25;;;6.99;100.00
19672;BME280;9983;51.114;13.788;2023-02-03T09:27:04;99284.88;;;6.93;100.00
19672;BME280;9983;51.114;13.788;2023-02-03T09:32:04;99284.88;;;6.67;100.00
19672;BME280;9983;51.114;13.788;2023-02-03T09:37:08;99267.13;;;6.75;100.00
19672;BME280;9983;51.114;13.788;2023-02-03T09:42:32;99256.00;;;6.62;100.00
19672;BME280;9983;51.114;13.788;2023-02-03T09:47:39;99214.88;;;6.82;100.00
19672;BME280;9983;51.114;13.788;2023-02-03T09:52:41;99211.31;;;6.48;100.00
19672;BME280;9983;51.114;13.788;2023-02-03T09:57:48;99227.69;;;6.61;100.00
19672;BME280;9983;51.114;13.788;2023-02-03T10:02:55;99208.50;;;6.75;100.00
19672;BME280;9983;51.114;13.788;2023-02-03T10:08:01;99189.53;;;6.78;100.00
19672;BME280;9983;51.114;13.788;2023-02-03T10:18:34;99163.03;;;7.03;100.00
19672;BME280;9983;51.114;13.788;2023-02-03T10:23:38;99147.84;;;7.03;100.00
19672;BME280;9983;51.114;13.788;2023-02-03T10:28:49;99146.94;;;6.86;100.00
19672;BME280;9983;51.114;13.788;2023-02-03T10:34:00;99125.84;;;6.93;100.00
19672;BME280;9983;51.114;13.788;2023-02-03T10:39:23;99110.69;;;6.94;100.00
19672;BME280;9983;51.114;13.788;2023-02-03T10:44:35;99100.09;;;7.10;100.00
19672;BME280;9983;51.114;13.788;2023-02-03T10:49:35;99098.00;;;6.96;100.00
19672;BME280;9983;51.114;13.788;2023-02-03T10:54:36;99093.34;;;6.90;100.00
19672;BME280;9983;51.114;13.788;2023-02-03T10:59:41;99086.19;;;6.98;100.00
19672;BME280;9983;51.114;13.788;2023-02-03T11:04:42;99091.88;;;7.03;100.00
19672;BME280;9983;51.114;13.788;2023-02-03T11:09:42;99048.09;;;7.14;100.00
19672;BME280;9983;51.114;13.788;2023-02-03T11:14:51;99058.63;;;7.23;100.00
19672;BME280;9983;51.114;13.788;2023-02-03T11:19:53;99064.13;;;7.30;100.00
19672;BME280;9983;51.114;13.788;2023-02-03T11:24:56;99069.13;;;7.33;100.00
19672;BME280;9983;51.114;13.788;2023-02-03T11:30:18;99040.13;;;7.22;100.00
19672;BME280;9983;51.114;13.788;2023-02-03T11:35:24;99060.13;;;7.18;100.00
19672;BME280;9983;51.114;13.788;2023-02-03T11:45:51;99044.16;;;7.34;100.00
19672;BME280;9983;51.114;13.788;2023-02-03T11:51:20;99017.47;;;7.34;100.00
19672;BME280;9983;51.114;13.788;2023-02-03T11:56:31;98980.63;;;7.21;100.00
19672;BME280;9983;51.114;13.788;2023-02-03T12:02:01;98964.31;;;7.41;100.00
19672;BME280;9983;51.114;13.788;2023-02-03T12:07:31;98936.47;;;7.59;100.00
19672;BME280;9983;51.114;13.788;2023-02-03T12:12:44;98940.09;;;7.75;100.00
19672;BME280;9983;51.114;13.788;2023-02-03T12:23:36;98969.13;;;7.53;100.00
19672;BME280;9983;51.114;13.788;2023-02-03T12:33:50;98943.06;;;7.88;100.00
19672;BME280;9983;51.114;13.788;2023-02-03T12:39:01;98948.78;;;7.77;100.00
19672;BME280;9983;51.114;13.788;2023-02-03T12:44:30;98946.13;;;7.69;100.00
19672;BME280;9983;51.114;13.788;2023-02-03T12:49:46;98929.38;;;7.91;100.00
19672;BME280;9983;51.114;13.788;2023-02-03T12:54:58;98921.69;;;7.96;100.00
19672;BME280;9983;51.114;13.788;2023-02-03T13:05:25;98982.06;;;7.97;100.00
19672;BME280;9983;51.114;13.788;2023-02-03T13:10:42;99001.47;;;7.83;100.00
19672;BME280;9983;51.114;13.788;2023-02-03T13:15:45;99024.13;;;8.03;100.00
19672;BME280;9983;51.114;13.788;2023-02-03T13:20:48;99040.16;;;7.95;100.00
19672;BME280;9983;51.114;13.788;2023-02-03T13:26:15;99046.81;;;7.91;100.00
19672;BME280;9983;51.114;13.788;2023-02-03T13:31:30;99046.16;;;7.81;100.00
19672;BME280;9983;51.114;13.788;2023-02-03T13:42:32;99059.66;;;7.79;100.00
19672;BME280;9983;51.114;13.788;2023-02-03T13:47:36;99038.81;;;7.91;100.00
19672;BME280;9983;51.114;13.788;2023-02-03T13:58:20;99068.16;;;7.58;100.00
19672;BME280;9983;51.114;13.788;2023-02-03T14:13:28;99077.81;;;7.35;100.00
19672;BME280;9983;51.114;13.788;2023-02-03T14:18:31;99105.16;;;7.45;100.00
19672;BME280;9983;51.114;13.788;2023-02-03T14:23:40;99107.81;;;7.53;100.00
19672;BME280;9983;51.114;13.788;2023-02-03T14:28:44;99108.50;;;7.47;100.00
19672;BME280;9983;51.114;13.788;2023-02-03T14:34:01;99111.16;;;7.55;100.00
19672;BME280;9983;51.114;13.788;2023-02-03T14:39:30;99110.44;;;7.29;100.00
19672;BME280;9983;51.114;13.788;2023-02-03T14:45:10;99115.81;;;7.45;100.00
19672;BME280;9983;51.114;13.788;2023-02-03T14:55:27;99137.09;;;7.29;100.00
19672;BME280;9983;51.114;13.788;2023-02-03T15:00:34;99143.03;;;7.07;100.00
19672;BME280;9983;51.114;13.788;2023-02-03T15:05:43;99145.34;;;7.52;100.00
19672;BME280;9983;51.114;13.788;2023-02-03T15:10:44;99171.50;;;7.40;100.00
19672;BME280;9983;51.114;13.788;2023-02-03T15:15:47;99170.94;;;6.95;100.00
19672;BME280;9983;51.114;13.788;2023-02-03T15:20:53;99170.66;;;6.46;100.00
19672;BME280;9983;51.114;13.788;2023-02-03T15:25:56;99186.34;;;6.49;100.00
19672;BME280;9983;51.114;13.788;2023-02-03T15:31:04;99199.94;;;6.64;100.00
19672;BME280;9983;51.114;13.788;2023-02-03T15:36:11;99187.28;;;6.40;100.00
19672;BME280;9983;51.114;13.788;2023-02-03T15:41:22;99199.41;;;6.60;100.00
19672;BME280;9983;51.114;13.788;2023-02-03T15:46:31;99209.84;;;6.79;100.00
19672;BME280;9983;51.114;13.788;2023-02-03T15:57:04;99210.63;;;6.98;100.00
19672;BME280;9983;51.114;13.788;2023-02-03T16:07:25;99225.31;;;7.02;100.00
19672;BME280;9983;51.114;13.788;2023-02-03T16:12:31;99234.31;;;7.01;100.00
19672;BME280;9983;51.114;13.788;2023-02-03T16:17:36;99237.59;;;7.29;100.00
19672;BME280;9983;51.114;13.788;2023-02-03T16:22:41;99242.34;;;7.09;100.00
19672;BME280;9983;51.114;13.788;2023-02-03T16:27:54;99243.38;;;7.16;100.00
19672;BME280;9983;51.114;13.788;2023-02-03T16:33:15;99255.81;;;7.33;100.00
19672;BME280;9983;51.114;13.788;2023-02-03T16:38:34;99261.06;;;7.17;100.00
19672;BME280;9983;51.114;13.788;2023-02-03T16:43:52;99261.78;;;7.27;100.00
19672;BME280;9983;51.114;13.788;2023-02-03T16:49:11;99259.38;;;7.16;100.00
19672;BME280;9983;51.114;13.788;2023-02-03T16:54:30;99259.16;;;7.35;100.00
19672;BME280;9983;51.114;13.788;2023-02-03T16:59:30;99267.13;;;7.27;100.00
19672;BME280;9983;51.114;13.788;2023-02-03T17:04:31;99279.13;;;7.31;100.00
19672;BME280;9983;51.114;13.788;2023-02-03T17:09:31;99286.44;;;7.29;100.00
19672;BME280;9983;51.114;13.788;2023-02-03T17:14:35;99293.44;;;7.30;100.00
19672;BME280;9983;51.114;13.788;2023-02-03T17:19:35;99305.09;;;7.29;100.00
19672;BME280;9983;51.114;13.788;2023-02-03T17:24:35;99303.13;;;7.31;100.00
19672;BME280;9983;51.114;13.788;2023-02-03T17:29:35;99301.13;;;7.67;100.00
19672;BME280;9983;51.114;13.788;2023-02-03T17:34:36;99298.47;;;7.33;100.00
19672;BME280;9983;51.114;13.788;2023-02-03T17:39:37;99304.53;;;7.43;100.00
19672;BME280;9983;51.114;13.788;2023-02-03T17:44:37;99301.44;;;7.30;100.00
19672;BME280;9983;51.114;13.788;2023-02-03T17:49:37;99303.88;;;7.49;100.00
19672;BME280;9983;51.114;13.788;2023-02-03T17:54:38;99301.41;;;7.22;100.00
19672;BME280;9983;51.114;13.788;2023-02-03T17:59:38;99304.09;;;7.30;100.00
19672;BME280;9983;51.114;13.788;2023-02-03T18:04:38;99323.75;;;7.29;100.00
19672;BME280;9983;51.114;13.788;2023-02-03T18:09:39;99333.38;;;7.22;100.00
19672;BME280;9983;51.114;13.788;2023-02-03T18:14:39;99340.19;;;7.16;100.00
19672;BME280;9983;51.114;13.788;2023-02-03T18:19:40;99358.81;;;7.34;100.00
19672;BME280;9983;51.114;13.788;2023-02-03T18:24:42;99364.59;;;7.30;100.00
19672;BME280;9983;51.114;13.788;2023-02-03T18:29:46;99369.97;;;7.38;100.00
19672;BME280;9983;51.114;13.788;2023-02-03T18:34:46;99378.78;;;7.30;100.00
19672;BME280;9983;51.114;13.788;2023-02-03T18:39:47;99380.34;;;7.15;100.00
19672;BME280;9983;51.114;13.788;2023-02-03T18:44:47;99380.44;;;7.31;100.00
19672;BME280;9983;51.114;13.788;2023-02-03T18:49:47;99384.44;;;7.27;100.00
19672;BME280;9983;51.114;13.788;2023-02-03T18:54:47;99395.50;;;7.40;100.00
19672;BME280;9983;51.114;13.788;2023-02-03T18:59:48;99385.66;;;7.15;100.00
19672;BME280;9983;51.114;13.788;2023-02-03T19:04:48;99389.19;;;6.98;100.00
19672;BME280;9983;51.114;13.788;2023-02-03T19:09:48;99407.47;;;6.93;100.00
19672;BME280;9983;51.114;13.788;2023-02-03T19:14:49;99392.69;;;7.16;100.00
19672;BME280;9983;51.114;13.788;2023-02-03T19:19:49;99392.84;;;6.97;100.00
19672;BME280;9983;51.114;13.788;2023-02-03T19:24:49;99386.16;;;6.93;100.00
19672;BME280;9983;51.114;13.788;2023-02-03T19:29:50;99388.91;;;6.65;100.00
19672;BME280;9983;51.114;13.788;2023-02-03T19:34:50;99393.47;;;6.91;100.00
19672;BME280;9983;51.114;13.788;2023-02-03T19:39:50;99398.25;;;7.05;100.00
19672;BME280;9983;51.114;13.788;2023-02-03T19:44:50;99409.53;;;6.63;100.00
19672;BME280;9983;51.114;13.788;2023-02-03T19:49:51;99401.53;;;6.63;100.00
19672;BME280;9983;51.114;13.788;2023-02-03T19:54:51;99403.66;;;6.42;100.00
19672;BME280;9983;51.114;13.788;2023-02-03T19:59:54;99407.69;;;6.46;100.00
19672;BME280;9983;51.114;13.788;2023-02-03T20:04:55;99394.50;;;6.44;100.00
19672;BME280;9983;51.114;13.788;2023-02-03T20:09:56;99415.44;;;6.39;100.00
19672;BME280;9983;51.114;13.788;2023-02-03T20:14:56;99425.44;;;6.28;100.00
19672;BME280;9983;51.114;13.788;2023-02-03T20:19:59;99425.94;;;6.14;100.00
19672;BME280;9983;51.114;13.788;2023-02-03T20:24:59;99439.94;;;6.16;100.00
19672;BME280;9983;51.114;13.788;2023-02-03T20:29:59;99429.38;;;5.96;100.00
19672;BME280;9983;51.114;13.788;2023-02-03T20:35:00;99428.13;;;6.00;100.00
19672;BME280;9983;51.114;13.788;2023-02-03T20:40:14;99429.38;;;5.96;100.00
19672;BME280;9983;51.114;13.788;2023-02-03T20:45:16;99443.63;;;5.68;100.00
19672;BME280;9983;51.114;13.788;2023-02-03T20:50:20;99431.66;;;5.82;100.00
19672;BME280;9983;51.114;13.788;2023-02-03T20:55:22;99426.81;;;6.04;100.00
19672;BME280;9983;51.114;13.788;2023-02-03T21:00:24;99430.00;;;5.71;100.00
19672;BME280;9983;51.114;13.788;2023-02-03T21:05:26;99428.84;;;5.83;100.00
19672;BME280;9983;51.114;13.788;2023-02-03T21:10:27;99455.47;;;5.83;100.00
19672;BME280;9983;51.114;13.788;2023-02-03T21:15:28;99448.47;;;5.92;100.00
19672;BME280;9983;51.114;13.788;2023-02-03T21:20:30;99452.94;;;5.91;100.00
19672;BME280;9983;51.114;13.788;2023-02-03T21:25:32;99455.03;;;5.88;100.00
19672;BME280;9983;51.114;13.788;2023-02-03T21:30:32;99457.56;;;5.80;100.00
19672;BME280;9983;51.114;13.788;2023-02-03T21:35:35;99453.84;;;5.63;100.00
19672;BME280;9983;51.114;13.788;2023-02-03T21:40:36;99457.66;;;5.51;100.00
19672;BME280;9983;51.114;13.788;2023-02-03T21:45:40;99470.75;;;5.62;100.00
19672;BME280;9983;51.114;13.788;2023-02-03T21:50:40;99466.47;;;5.42;100.00
19672;BME280;9983;51.114;13.788;2023-02-03T21:55:41;99489.13;;;5.46;100.00
19672;BME280;9983;51.114;13.788;2023-02-03T22:00:42;99481.84;;;5.57;100.00
19672;BME280;9983;51.114;13.788;2023-02-03T22:05:47;99502.56;;;5.54;100.00
19672;BME280;9983;51.114;13.788;2023-02-03T22:10:48;99512.25;;;5.36;100.00
19672;BME280;9983;51.114;13.788;2023-02-03T22:15:48;99519.66;;;5.42;100.00
19672;BME280;9983;51.114;13.788;2023-02-03T22:20:49;99527.06;;;5.28;100.00
19672;BME280;9983;51.114;13.788;2023-02-03T22:25:49;99528.47;;;5.52;100.00
19672;BME280;9983;51.114;13.788;2023-02-03T22:30:50;99525.25;;;5.39;100.00
19672;BME280;9983;51.114;13.788;2023-02-03T22:35:50;99535.88;;;5.39;100.00
19672;BME280;9983;51.114;13.788;2023-02-03T22:40:51;99541.19;;;5.19;100.00
19672;BME280;9983;51.114;13.788;2023-02-03T22:45:52;99548.19;;;5.40;100.00
19672;BME280;9983;51.114;13.788;2023-02-03T22:50:54;99552.41;;;5.32;100.00
19672;BME280;9983;51.114;13.788;2023-02-03T22:55:54;99542.31;;;5.46;100.00
19672;BME280;9983;51.114;13.788;2023-02-03T23:00:54;99540.91;;;5.32;100.00
19672;BME280;9983;51.114;13.788;2023-02-03T23:05:54;99569.19;;;5.23;100.00
19672;BME280;9983;51.114;13.788;2023-02-03T23:10:55;99563.03;;;5.42;100.00
19672;BME280;9983;51.114;13.788;2023-02-03T23:15:55;99570.03;;;5.33;100.00
19672;BME280;9983;51.114;13.788;2023-02-03T23:20:56;99560.25;;;5.34;100.00
19672;BME280;9983;51.114;13.788;2023-02-03T23:25:56;99569.19;;;5.43;100.00
19672;BME280;9983;51.114;13.788;2023-02-03T23:30:56;99564.41;;;5.37;100.00
19672;BME280;9983;51.114;13.788;2023-02-03T23:35:57;99586.00;;;5.43;100.00
19672;BME280;9983;51.114;13.788;2023-02-03T23:40:57;99585.69;;;5.46;100.00
19672;BME280;9983;51.114;13.788;2023-02-03T23:45:57;99639.72;;;5.56;100.00
19672;BME280;9983;51.114;13.788;2023-02-03T23:50:58;99691.25;;;5.65;100.00
19672;BME280;9983;51.114;13.788;2023-02-03T23:55:58;99689.25;;;5.38;100.00
